createdAt,value
2023-03-01T00:00:31.391Z,0.00
2023-03-01T00:01:31.194Z,0.00
2023-03-01T00:02:52.204Z,0.00
2023-03-01T00:03:31.337Z,0.00
2023-03-01T00:04:31.541Z,0.00
2023-03-01T00:05:31.328Z,0.00
2023-03-01T00:06:31.961Z,0.00
2023-03-01T00:07:31.376Z,0.00
2023-03-01T00:08:31.163Z,0.00
2023-03-01T00:09:31.433Z,0.00
2023-03-01T00:10:31.193Z,0.00
2023-03-01T00:11:31.514Z,0.00
2023-03-01T00:12:52.236Z,0.00
2023-03-01T00:13:31.082Z,0.00
2023-03-01T00:14:31.335Z,0.00
2023-03-01T00:15:31.132Z,0.00
2023-03-01T00:16:31.930Z,0.00
2023-03-01T00:17:31.227Z,0.00
2023-03-01T00:18:30.995Z,0.00
2023-03-01T00:19:31.318Z,0.00
2023-03-01T00:20:31.078Z,0.00
2023-03-01T00:21:31.413Z,0.00
2023-03-01T00:22:51.803Z,0.00
2023-03-01T00:23:31.433Z,0.00
2023-03-01T00:24:31.225Z,0.00
2023-03-01T00:25:30.997Z,0.00
2023-03-01T00:26:31.712Z,0.00
2023-03-01T00:27:31.005Z,0.00
2023-03-01T00:28:31.289Z,0.00
2023-03-01T00:29:31.105Z,0.00
2023-03-01T00:30:31.393Z,0.00
2023-03-01T00:31:31.139Z,0.00
2023-03-01T00:32:51.710Z,0.00
2023-03-01T00:33:31.220Z,0.00
2023-03-01T00:34:31.008Z,0.00
2023-03-01T00:35:31.365Z,0.00
2023-03-01T00:36:31.362Z,0.00
2023-03-01T00:37:30.809Z,0.00
2023-03-01T00:38:31.096Z,0.00
2023-03-01T00:39:30.862Z,0.00
2023-03-01T00:40:31.134Z,0.00
2023-03-01T00:41:30.945Z,0.00
2023-03-01T00:42:52.163Z,0.00
2023-03-01T00:43:31.018Z,0.00
2023-03-01T00:44:30.810Z,0.00
2023-03-01T00:45:31.109Z,0.00
2023-03-01T00:46:31.225Z,0.00
2023-03-01T00:47:31.154Z,0.00
2023-03-01T00:48:30.904Z,0.00
2023-03-01T00:49:31.174Z,0.00
2023-03-01T00:50:30.963Z,0.00
2023-03-01T00:51:30.751Z,0.00
2023-03-01T00:52:52.446Z,0.00
2023-03-01T00:53:30.774Z,0.00
2023-03-01T00:54:31.061Z,0.00
2023-03-01T00:55:30.875Z,0.00
2023-03-01T00:56:31.644Z,0.00
2023-03-01T00:57:30.905Z,0.00
2023-03-01T00:58:30.695Z,0.00
2023-03-01T00:59:30.985Z,0.00
2023-03-01T01:00:30.761Z,0.00
2023-03-01T01:01:31.057Z,0.00
2023-03-01T01:02:51.773Z,0.00
2023-03-01T01:03:30.625Z,0.00
2023-03-01T01:04:30.895Z,0.00
2023-03-01T01:05:30.645Z,0.00
2023-03-01T01:06:31.487Z,0.00
2023-03-01T01:07:30.726Z,0.00
2023-03-01T01:08:31.024Z,0.00
2023-03-01T01:09:30.783Z,0.00
2023-03-01T01:10:30.600Z,0.00
2023-03-01T01:11:30.885Z,0.00
2023-03-01T01:12:51.670Z,0.00
2023-03-01T01:13:30.496Z,0.00
2023-03-01T01:14:30.756Z,0.00
2023-03-01T01:15:30.525Z,0.00
2023-03-01T01:16:31.045Z,0.00
2023-03-01T01:17:30.555Z,0.00
2023-03-01T01:18:30.855Z,0.00
2023-03-01T01:19:30.592Z,0.00
2023-03-01T01:20:30.887Z,0.00
2023-03-01T01:21:30.650Z,0.00
2023-03-01T01:22:51.406Z,0.00
2023-03-01T01:23:30.756Z,0.00
2023-03-01T01:24:30.524Z,0.00
2023-03-01T01:25:30.780Z,0.00
2023-03-01T01:26:30.824Z,0.00
2023-03-01T01:27:30.359Z,0.00
2023-03-01T01:28:30.635Z,0.00
2023-03-01T01:29:30.415Z,0.00
2023-03-01T01:30:30.697Z,0.00
2023-03-01T01:31:30.473Z,0.00
2023-03-01T01:32:51.239Z,0.00
2023-03-01T01:33:30.503Z,0.00
2023-03-01T01:34:30.286Z,0.00
2023-03-01T01:35:30.577Z,0.00
2023-03-01T01:36:30.589Z,0.00
2023-03-01T01:37:30.576Z,0.00
2023-03-01T01:38:30.339Z,0.00
2023-03-01T01:39:30.628Z,0.00
2023-03-01T01:40:30.408Z,0.00
2023-03-01T01:41:30.245Z,0.00
2023-03-01T01:42:51.477Z,0.00
2023-03-01T01:43:30.283Z,0.00
2023-03-01T01:44:30.560Z,0.00
2023-03-01T01:45:30.389Z,0.00
2023-03-01T01:46:30.999Z,0.00
2023-03-01T01:47:30.429Z,0.00
2023-03-01T01:48:30.211Z,0.00
2023-03-01T01:49:30.481Z,0.00
2023-03-01T01:50:30.257Z,0.00
2023-03-01T01:51:30.677Z,0.00
2023-03-01T01:52:51.917Z,0.00
2023-03-01T01:53:30.282Z,0.00
2023-03-01T01:54:30.514Z,0.00
2023-03-01T01:55:30.327Z,0.00
2023-03-01T01:56:30.972Z,0.00
2023-03-01T01:57:30.367Z,0.00
2023-03-01T01:58:30.134Z,0.00
2023-03-01T01:59:30.456Z,0.00
2023-03-01T02:00:30.258Z,0.00
2023-03-01T02:01:30.008Z,0.00
2023-03-01T02:02:50.835Z,0.00
2023-03-01T02:03:30.266Z,0.00
2023-03-01T02:04:30.377Z,0.00
2023-03-01T02:05:30.142Z,0.00
2023-03-01T02:06:30.829Z,0.00
2023-03-01T02:07:30.171Z,0.00
2023-03-01T02:08:30.437Z,0.00
2023-03-01T02:09:30.238Z,0.00
2023-03-01T02:10:30.002Z,0.00
2023-03-01T02:11:30.249Z,0.00
2023-03-01T02:12:50.720Z,0.00
2023-03-01T02:13:30.319Z,0.00
2023-03-01T02:14:30.789Z,0.00
2023-03-01T02:15:29.889Z,0.00
2023-03-01T02:16:30.627Z,0.00
2023-03-01T02:17:29.972Z,0.00
2023-03-01T02:18:30.242Z,0.00
2023-03-01T02:19:30.030Z,0.00
2023-03-01T02:20:30.319Z,0.00
2023-03-01T02:21:30.083Z,0.00
2023-03-01T02:22:51.352Z,0.00
2023-03-01T02:23:30.213Z,0.00
2023-03-01T02:24:29.971Z,0.00
2023-03-01T02:25:30.216Z,0.00
2023-03-01T02:26:30.306Z,0.00
2023-03-01T02:27:29.787Z,0.00
2023-03-01T02:28:30.055Z,0.00
2023-03-01T02:29:29.822Z,0.00
2023-03-01T02:30:30.101Z,0.00
2023-03-01T02:31:29.974Z,0.00
2023-03-01T02:32:51.622Z,0.00
2023-03-01T02:33:29.961Z,0.00
2023-03-01T02:34:29.737Z,0.00
2023-03-01T02:35:30.124Z,0.00
2023-03-01T02:36:30.128Z,0.00
2023-03-01T02:37:30.071Z,0.00
2023-03-01T02:38:29.893Z,0.00
2023-03-01T02:39:29.649Z,0.00
2023-03-01T02:40:29.915Z,0.00
2023-03-01T02:41:29.717Z,0.00
2023-03-01T02:42:50.798Z,0.00
2023-03-01T02:43:29.800Z,0.00
2023-03-01T02:44:30.049Z,0.00
2023-03-01T02:45:29.843Z,0.00
2023-03-01T02:46:30.007Z,0.00
2023-03-01T02:47:29.887Z,0.00
2023-03-01T02:48:29.684Z,0.00
2023-03-01T02:49:29.980Z,0.00
2023-03-01T02:50:29.719Z,0.00
2023-03-01T02:51:30.011Z,0.00
2023-03-01T02:52:50.725Z,0.00
2023-03-01T02:53:29.546Z,0.00
2023-03-01T02:54:29.833Z,0.00
2023-03-01T02:55:29.607Z,0.00
2023-03-01T02:56:30.287Z,0.00
2023-03-01T02:57:29.689Z,0.00
2023-03-01T02:58:29.426Z,0.00
2023-03-01T02:59:29.704Z,0.00
2023-03-01T03:00:29.562Z,0.00
2023-03-01T03:01:29.749Z,0.00
2023-03-01T03:02:50.537Z,0.00
2023-03-01T03:03:29.878Z,0.00
2023-03-01T03:04:29.670Z,0.00
2023-03-01T03:05:29.436Z,0.00
2023-03-01T03:06:30.074Z,0.00
2023-03-01T03:07:29.487Z,0.00
2023-03-01T03:08:29.840Z,0.00
2023-03-01T03:09:29.585Z,0.00
2023-03-01T03:10:29.347Z,0.00
2023-03-01T03:11:29.607Z,0.00
2023-03-01T03:12:50.858Z,0.00
2023-03-01T03:13:29.672Z,0.00
2023-03-01T03:14:29.448Z,0.00
2023-03-01T03:15:29.742Z,0.00
2023-03-01T03:16:29.829Z,0.00
2023-03-01T03:17:29.788Z,0.00
2023-03-01T03:18:29.608Z,0.00
2023-03-01T03:19:29.372Z,0.00
2023-03-01T03:20:29.644Z,0.00
2023-03-01T03:21:30.858Z,0.00
2023-03-01T03:22:50.330Z,0.00
2023-03-01T03:23:29.519Z,0.00
2023-03-01T03:24:29.303Z,0.00
2023-03-01T03:25:29.580Z,0.00
2023-03-01T03:26:31.205Z,0.00
2023-03-01T03:27:29.694Z,0.00
2023-03-01T03:28:29.960Z,0.00
2023-03-01T03:29:29.236Z,0.00
2023-03-01T03:30:29.545Z,0.00
2023-03-01T03:31:29.383Z,0.00
2023-03-01T03:32:51.160Z,0.00
2023-03-01T03:33:29.487Z,0.00
2023-03-01T03:34:29.270Z,0.00
2023-03-01T03:35:31.110Z,0.00
2023-03-01T03:36:29.558Z,0.00
2023-03-01T03:37:29.129Z,0.00
2023-03-01T03:38:29.448Z,0.00
2023-03-01T03:39:29.197Z,0.00
2023-03-01T03:40:29.518Z,0.00
2023-03-01T03:41:29.282Z,0.00
2023-03-01T03:42:49.102Z,0.00
2023-03-01T03:43:29.366Z,0.00
2023-03-01T03:44:29.137Z,0.00
2023-03-01T03:45:29.464Z,0.00
2023-03-01T03:46:29.179Z,0.00
2023-03-01T03:47:29.459Z,0.00
2023-03-01T03:48:29.229Z,0.00
2023-03-01T03:49:29.024Z,0.00
2023-03-01T03:50:29.327Z,0.00
2023-03-01T03:51:29.110Z,0.00
2023-03-01T03:52:49.380Z,0.00
2023-03-01T03:53:29.157Z,0.00
2023-03-01T03:54:28.971Z,0.00
2023-03-01T03:55:29.226Z,0.00
2023-03-01T03:56:29.156Z,0.00
2023-03-01T03:57:29.299Z,0.00
2023-03-01T03:58:29.071Z,0.00
2023-03-01T03:59:29.303Z,0.00
2023-03-01T04:00:29.634Z,0.00
2023-03-01T04:01:28.869Z,0.00
2023-03-01T04:02:49.206Z,0.00
2023-03-01T04:03:28.913Z,0.00
2023-03-01T04:04:29.812Z,0.00
2023-03-01T04:05:30.462Z,0.00
2023-03-01T04:06:29.270Z,0.00
2023-03-01T04:07:29.823Z,0.00
2023-03-01T04:08:30.403Z,0.00
2023-03-01T04:09:30.683Z,0.00
2023-03-01T04:10:29.053Z,0.00
2023-03-01T04:11:28.854Z,0.00
2023-03-01T04:12:49.174Z,0.00
2023-03-01T04:13:30.383Z,0.00
2023-03-01T04:14:28.763Z,0.00
2023-03-01T04:15:29.092Z,0.00
2023-03-01T04:16:29.406Z,0.00
2023-03-01T04:17:30.541Z,0.00
2023-03-01T04:18:29.577Z,0.00
2023-03-01T04:19:30.110Z,0.00
2023-03-01T04:20:29.124Z,0.00
2023-03-01T04:21:30.127Z,0.00
2023-03-01T04:22:48.992Z,0.00
2023-03-01T04:23:30.148Z,0.00
2023-03-01T04:24:30.417Z,0.00
2023-03-01T04:25:29.156Z,0.00
2023-03-01T04:26:30.697Z,0.00
2023-03-01T04:27:30.223Z,0.00
2023-03-01T04:28:29.332Z,0.00
2023-03-01T04:29:30.260Z,0.00
2023-03-01T04:30:29.188Z,0.00
2023-03-01T04:31:30.303Z,0.00
2023-03-01T04:32:48.611Z,0.00
2023-03-01T04:33:30.272Z,0.00
2023-03-01T04:34:29.336Z,0.00
2023-03-01T04:35:29.298Z,0.00
2023-03-01T04:36:31.036Z,0.00
2023-03-01T04:37:30.350Z,0.00
2023-03-01T04:38:30.130Z,0.00
2023-03-01T04:39:29.340Z,0.00
2023-03-01T04:40:29.012Z,0.00
2023-03-01T04:41:29.914Z,0.00
2023-03-01T04:42:50.196Z,0.00
2023-03-01T04:43:29.960Z,0.00
2023-03-01T04:44:30.222Z,0.00
2023-03-01T04:45:29.032Z,0.00
2023-03-01T04:46:29.242Z,0.00
2023-03-01T04:47:29.281Z,0.00
2023-03-01T04:48:30.293Z,0.00
2023-03-01T04:49:30.035Z,0.00
2023-03-01T04:50:29.075Z,0.00
2023-03-01T04:51:30.130Z,0.00
2023-03-01T04:52:48.460Z,0.00
2023-03-01T04:53:30.134Z,0.00
2023-03-01T04:54:29.928Z,0.00
2023-03-01T04:55:29.113Z,0.00
2023-03-01T04:56:29.738Z,0.00
2023-03-01T04:57:29.720Z,0.00
2023-03-01T04:58:29.987Z,0.00
2023-03-01T04:59:29.764Z,0.00
2023-03-01T05:00:29.133Z,0.00
2023-03-01T05:01:28.354Z,0.00
2023-03-01T05:02:48.631Z,0.00
2023-03-01T05:03:29.772Z,0.00
2023-03-01T05:04:30.053Z,0.00
2023-03-01T05:05:29.179Z,0.00
2023-03-01T05:06:30.349Z,0.00
2023-03-01T05:07:29.848Z,0.00
2023-03-01T05:08:30.105Z,0.00
2023-03-01T05:09:29.892Z,0.00
2023-03-01T05:10:29.629Z,0.00
2023-03-01T05:11:29.173Z,0.00
2023-03-01T05:12:48.269Z,0.00
2023-03-01T05:13:29.926Z,0.00
2023-03-01T05:14:29.717Z,0.00
2023-03-01T05:15:29.234Z,0.00
2023-03-01T05:16:30.031Z,0.00
2023-03-01T05:17:29.988Z,0.00
2023-03-01T05:18:28.854Z,0.00
2023-03-01T05:19:29.253Z,0.00
2023-03-01T05:20:29.012Z,0.00
2023-03-01T05:21:29.546Z,0.00
2023-03-01T05:22:48.376Z,0.00
2023-03-01T05:23:29.569Z,0.00
2023-03-01T05:24:28.878Z,0.00
2023-03-01T05:25:29.024Z,0.00
2023-03-01T05:26:29.920Z,0.00
2023-03-01T05:27:29.657Z,0.00
2023-03-01T05:28:29.899Z,0.00
2023-03-01T05:29:29.670Z,0.00
2023-03-01T05:30:28.869Z,0.00
2023-03-01T05:31:28.990Z,0.00
2023-03-01T05:32:48.018Z,0.00
2023-03-01T05:33:29.676Z,0.00
2023-03-01T05:34:29.429Z,0.00
2023-03-01T05:35:29.117Z,0.00
2023-03-01T05:36:29.231Z,0.00
2023-03-01T05:37:29.770Z,0.00
2023-03-01T05:38:29.506Z,0.00
2023-03-01T05:39:29.788Z,0.00
2023-03-01T05:40:28.107Z,0.00
2023-03-01T05:41:28.871Z,0.00
2023-03-01T05:42:48.129Z,0.00
2023-03-01T05:43:29.320Z,1.00
2023-03-01T05:44:29.571Z,1.00
2023-03-01T05:45:28.137Z,1.00
2023-03-01T05:46:30.018Z,1.00
2023-03-01T05:47:28.880Z,1.00
2023-03-01T05:48:29.274Z,0.00
2023-03-01T05:49:29.538Z,2.00
2023-03-01T05:50:28.176Z,2.00
2023-03-01T05:51:29.654Z,2.00
2023-03-01T05:52:47.965Z,0.00
2023-03-01T05:53:29.712Z,0.00
2023-03-01T05:54:29.514Z,0.00
2023-03-01T05:55:29.101Z,2.00
2023-03-01T05:56:28.413Z,1.00
2023-03-01T05:57:27.806Z,3.00
2023-03-01T05:58:28.070Z,15.00
2023-03-01T05:59:27.790Z,3.00
2023-03-01T06:00:28.058Z,2.00
2023-03-01T06:01:27.810Z,4.00
2023-03-01T06:02:48.072Z,8.00
2023-03-01T06:03:27.810Z,8.00
2023-03-01T06:04:28.079Z,7.00
2023-03-01T06:05:27.916Z,14.00
2023-03-01T06:06:29.247Z,14.00
2023-03-01T06:07:27.773Z,11.00
2023-03-01T06:08:28.049Z,16.00
2023-03-01T06:09:27.769Z,27.00
2023-03-01T06:10:28.036Z,16.00
2023-03-01T06:11:27.777Z,31.00
2023-03-01T06:12:48.036Z,28.00
2023-03-01T06:13:27.764Z,41.00
2023-03-01T06:14:28.027Z,57.00
2023-03-01T06:15:27.770Z,62.00
2023-03-01T06:16:28.172Z,72.00
2023-03-01T06:17:27.780Z,82.00
2023-03-01T06:18:27.555Z,91.00
2023-03-01T06:19:27.784Z,97.00
2023-03-01T06:20:27.557Z,115.00
2023-03-01T06:21:27.783Z,127.00
2023-03-01T06:22:47.560Z,157.00
2023-03-01T06:23:27.779Z,158.00
2023-03-01T06:24:27.538Z,181.00
2023-03-01T06:25:27.779Z,197.00
2023-03-01T06:26:27.531Z,225.00
2023-03-01T06:27:27.771Z,229.00
2023-03-01T06:28:27.511Z,264.00
2023-03-01T06:29:29.259Z,276.00
2023-03-01T06:30:28.178Z,298.00
2023-03-01T06:31:28.412Z,324.00
2023-03-01T06:32:47.679Z,360.00
2023-03-01T06:33:28.868Z,367.00
2023-03-01T06:34:29.179Z,392.00
2023-03-01T06:35:28.240Z,407.00
2023-03-01T06:36:29.511Z,446.00
2023-03-01T06:37:29.041Z,470.00
2023-03-01T06:38:27.404Z,504.00
2023-03-01T06:39:29.162Z,533.00
2023-03-01T06:40:27.979Z,564.00
2023-03-01T06:41:29.209Z,595.00
2023-03-01T06:42:47.550Z,632.00
2023-03-01T06:43:28.241Z,658.00
2023-03-01T06:44:28.422Z,693.00
2023-03-01T06:45:28.027Z,726.00
2023-03-01T06:46:29.669Z,767.00
2023-03-01T06:47:28.991Z,802.00
2023-03-01T06:48:28.314Z,841.00
2023-03-01T06:49:27.915Z,893.00
2023-03-01T06:50:28.000Z,935.00
2023-03-01T06:51:28.727Z,975.00
2023-03-01T06:52:52.822Z,1035.00
2023-03-01T06:53:29.159Z,1056.00
2023-03-01T06:54:28.937Z,1100.00
2023-03-01T06:55:28.090Z,1139.00
2023-03-01T06:56:27.934Z,1175.00
2023-03-01T06:57:28.819Z,1212.00
2023-03-01T06:58:28.633Z,1239.00
2023-03-01T06:59:28.958Z,1271.00
2023-03-01T07:00:27.963Z,1286.00
2023-03-01T07:01:29.062Z,1355.00
2023-03-01T07:02:47.412Z,1414.00
2023-03-01T07:03:28.617Z,1432.00
2023-03-01T07:04:28.410Z,1483.00
2023-03-01T07:05:28.147Z,1528.00
2023-03-01T07:06:28.842Z,1566.00
2023-03-01T07:07:28.064Z,1599.00
2023-03-01T07:08:27.934Z,1630.00
2023-03-01T07:09:28.987Z,1659.00
2023-03-01T07:10:28.176Z,1691.00
2023-03-01T07:11:28.567Z,1728.00
2023-03-01T07:12:47.418Z,1757.00
2023-03-01T07:13:28.580Z,1767.00
2023-03-01T07:14:27.937Z,1779.00
2023-03-01T07:15:27.908Z,1737.00
2023-03-01T07:16:28.536Z,1702.00
2023-03-01T07:17:28.755Z,1667.00
2023-03-01T07:18:28.573Z,1622.00
2023-03-01T07:19:28.857Z,1600.00
2023-03-01T07:20:27.948Z,1645.00
2023-03-01T07:21:28.457Z,1695.00
2023-03-01T07:22:47.299Z,1789.00
2023-03-01T07:23:28.491Z,1893.00
2023-03-01T07:24:28.825Z,2299.00
2023-03-01T07:25:28.012Z,2477.00
2023-03-01T07:26:27.904Z,2845.00
2023-03-01T07:27:28.692Z,3278.00
2023-03-01T07:28:28.470Z,3686.00
2023-03-01T07:29:28.429Z,3803.00
2023-03-01T07:30:28.082Z,3392.00
2023-03-01T07:31:28.356Z,3756.00
2023-03-01T07:32:47.300Z,3342.00
2023-03-01T07:33:28.390Z,3469.00
2023-03-01T07:34:27.263Z,3742.00
2023-03-01T07:35:27.016Z,3522.00
2023-03-01T07:36:27.219Z,3705.00
2023-03-01T07:37:26.979Z,4019.00
2023-03-01T07:38:27.245Z,3468.00
2023-03-01T07:39:26.966Z,3828.00
2023-03-01T07:40:26.733Z,3897.00
2023-03-01T07:41:26.968Z,3537.00
2023-03-01T07:42:47.238Z,3802.00
2023-03-01T07:43:26.986Z,4041.00
2023-03-01T07:44:27.434Z,4431.00
2023-03-01T07:45:27.065Z,4628.00
2023-03-01T07:46:26.716Z,4139.00
2023-03-01T07:47:26.974Z,4594.00
2023-03-01T07:48:26.710Z,4629.00
2023-03-01T07:49:26.948Z,4620.00
2023-03-01T07:50:26.698Z,4622.00
2023-03-01T07:51:26.912Z,4565.00
2023-03-01T07:52:46.685Z,5474.00
2023-03-01T07:53:26.923Z,5127.00
2023-03-01T07:54:26.675Z,4059.00
2023-03-01T07:55:27.063Z,4770.00
2023-03-01T07:56:26.674Z,5760.00
2023-03-01T07:57:26.926Z,7102.00
2023-03-01T07:58:26.703Z,5886.00
2023-03-01T07:59:27.018Z,5201.00
2023-03-01T08:00:26.753Z,6527.00
2023-03-01T08:01:27.054Z,7957.00
2023-03-01T08:02:46.750Z,11114.00
2023-03-01T08:03:26.497Z,13445.00
2023-03-01T08:04:26.767Z,17016.00
2023-03-01T08:05:26.522Z,14184.00
2023-03-01T08:06:26.752Z,5939.00
2023-03-01T08:07:26.498Z,6326.00
2023-03-01T08:08:26.772Z,13827.00
2023-03-01T08:09:26.480Z,15018.00
2023-03-01T08:10:26.865Z,12047.00
2023-03-01T08:11:26.568Z,11261.00
2023-03-01T08:12:46.766Z,9889.00
2023-03-01T08:13:26.490Z,9437.00
2023-03-01T08:14:26.724Z,8830.00
2023-03-01T08:15:26.484Z,9005.00
2023-03-01T08:16:26.947Z,9293.00
2023-03-01T08:17:26.475Z,10381.00
2023-03-01T08:18:26.735Z,12085.00
2023-03-01T08:19:26.539Z,11215.00
2023-03-01T08:20:26.784Z,10907.00
2023-03-01T08:21:26.522Z,13351.00
2023-03-01T08:22:51.042Z,10028.00
2023-03-01T08:23:26.524Z,10325.00
2023-03-01T08:24:26.783Z,10437.00
2023-03-01T08:25:26.541Z,16250.00
2023-03-01T08:26:26.284Z,16751.00
2023-03-01T08:27:26.513Z,11299.00
2023-03-01T08:28:26.296Z,11102.00
2023-03-01T08:29:26.525Z,13937.00
2023-03-01T08:30:26.326Z,14625.00
2023-03-01T08:31:28.032Z,12486.00
2023-03-01T08:32:46.430Z,10835.00
2023-03-01T08:33:28.096Z,11361.00
2023-03-01T08:34:27.873Z,12050.00
2023-03-01T08:35:26.879Z,12479.00
2023-03-01T08:36:26.978Z,11862.00
2023-03-01T08:37:27.710Z,11824.00
2023-03-01T08:38:28.026Z,12980.00
2023-03-01T08:39:27.848Z,16712.00
2023-03-01T08:40:28.076Z,21454.00
2023-03-01T08:41:27.906Z,21480.00
2023-03-01T08:42:46.230Z,20974.00
2023-03-01T08:43:27.948Z,19280.00
2023-03-01T08:44:27.756Z,26255.00
2023-03-01T08:45:27.548Z,28292.00
2023-03-01T08:46:27.047Z,22551.00
2023-03-01T08:47:27.628Z,27435.00
2023-03-01T08:48:27.002Z,32126.00
2023-03-01T08:49:27.736Z,31862.00
2023-03-01T08:50:27.531Z,31415.00
2023-03-01T08:51:27.803Z,34942.00
2023-03-01T08:52:46.138Z,30733.00
2023-03-01T08:53:27.858Z,29099.00
2023-03-01T08:54:27.031Z,38634.00
2023-03-01T08:55:27.444Z,33117.00
2023-03-01T08:56:27.769Z,33697.00
2023-03-01T08:57:27.558Z,36220.00
2023-03-01T08:58:27.095Z,32736.00
2023-03-01T08:59:27.666Z,39500.00
2023-03-01T09:00:26.005Z,39086.00
2023-03-01T09:01:27.729Z,29656.00
2023-03-01T09:02:46.066Z,40192.00
2023-03-01T09:03:27.764Z,41289.00
2023-03-01T09:04:27.528Z,36014.00
2023-03-01T09:05:27.869Z,37311.00
2023-03-01T09:06:27.045Z,36130.00
2023-03-01T09:07:27.446Z,40859.00
2023-03-01T09:08:27.750Z,40429.00
2023-03-01T09:11:07.526Z,39703.00
2023-03-01T09:11:12.681Z,40359.00
2023-03-01T09:14:53.109Z,38092.00
2023-03-01T09:15:20.350Z,38274.00
2023-03-01T09:15:58.696Z,41095.00
2023-03-01T09:24:08.895Z,42314.00
2023-03-01T09:24:15.268Z,42213.00
2023-03-01T09:36:13.529Z,48978.00
2023-03-01T09:36:19.863Z,47265.00
2023-03-01T11:31:28.621Z,13625.00
2023-03-01T12:19:26.574Z,53936.00
2023-03-01T12:19:39.169Z,52873.00
2023-03-01T12:22:00.941Z,56515.00
2023-03-01T12:22:26.678Z,57294.00
2023-03-01T12:23:19.753Z,43029.00
2023-03-01T12:24:07.677Z,46310.00
2023-03-01T12:25:06.444Z,33203.00
2023-03-01T12:26:06.716Z,30819.00
2023-03-01T12:27:06.493Z,28094.00
2023-03-01T12:28:06.224Z,25616.00
2023-03-01T12:29:06.484Z,21102.00
2023-03-01T12:30:06.251Z,33028.00
2023-03-01T12:31:07.439Z,45447.00
2023-03-01T12:32:26.282Z,48774.00
2023-03-01T12:33:37.718Z,56257.00
2023-03-01T12:34:06.576Z,42875.00
2023-03-01T12:35:06.394Z,36399.00
2023-03-01T12:36:06.222Z,49078.00
2023-03-01T12:37:07.378Z,24208.00
2023-03-01T12:38:06.182Z,35093.00
2023-03-01T12:39:06.442Z,25800.00
2023-03-01T12:40:06.195Z,36043.00
2023-03-01T12:41:06.541Z,47645.00
2023-03-01T12:42:26.209Z,23429.00
2023-03-01T12:43:06.508Z,12415.00
2023-03-01T12:44:06.251Z,17156.00
2023-03-01T12:45:07.726Z,17023.00
2023-03-01T12:46:06.076Z,15985.00
2023-03-01T12:47:07.260Z,10789.00
2023-03-01T12:48:06.048Z,16294.00
2023-03-01T12:49:06.280Z,20419.00
2023-03-01T12:50:06.024Z,16103.00
2023-03-01T12:51:07.223Z,15809.00
2023-03-01T12:52:26.454Z,8199.00
2023-03-01T12:53:07.335Z,9226.00
2023-03-01T12:54:06.188Z,42108.00
2023-03-01T12:55:06.394Z,29788.00
2023-03-01T12:56:07.074Z,22750.00
2023-03-01T12:57:06.388Z,28600.00
2023-03-01T12:58:06.144Z,39428.00
2023-03-01T12:59:07.340Z,23819.00
2023-03-01T13:00:06.149Z,8240.00
2023-03-01T13:01:05.948Z,9923.00
2023-03-01T13:02:27.631Z,15421.00
2023-03-01T13:03:05.939Z,8319.00
2023-03-01T13:04:06.234Z,8592.00
2023-03-01T13:05:06.893Z,8989.00
2023-03-01T13:06:06.187Z,12880.00
2023-03-01T13:07:06.910Z,8380.00
2023-03-01T13:08:07.143Z,11413.00
2023-03-01T13:09:05.965Z,15048.00
2023-03-01T13:10:06.210Z,9517.00
2023-03-01T13:11:05.969Z,10152.00
2023-03-01T13:12:27.756Z,6943.00
2023-03-01T13:13:06.051Z,6005.00
2023-03-01T13:14:05.788Z,8189.00
2023-03-01T13:15:07.023Z,5755.00
2023-03-01T13:16:05.834Z,5813.00
2023-03-01T13:17:07.027Z,6590.00
2023-03-01T13:18:05.840Z,6364.00
2023-03-01T13:19:06.089Z,5848.00
2023-03-01T13:20:05.839Z,6709.00
2023-03-01T13:21:06.109Z,6957.00
2023-03-01T13:22:28.584Z,5536.00
2023-03-01T13:23:05.710Z,5405.00
2023-03-01T13:24:05.964Z,5372.00
2023-03-01T13:25:05.747Z,5334.00
2023-03-01T13:26:06.009Z,5581.00
2023-03-01T13:27:05.739Z,5430.00
2023-03-01T13:28:05.992Z,5311.00
2023-03-01T13:29:05.753Z,9009.00
2023-03-01T13:30:05.992Z,6589.00
2023-03-01T13:31:05.729Z,6618.00
2023-03-01T13:32:38.137Z,5236.00
2023-03-01T13:33:08.051Z,5252.00
2023-03-01T13:34:05.792Z,5241.00
2023-03-01T13:35:05.568Z,5366.00
2023-03-01T13:36:05.826Z,5642.00
2023-03-01T13:37:05.550Z,7824.00
2023-03-01T13:38:05.816Z,9328.00
2023-03-01T13:39:05.552Z,7901.00
2023-03-01T13:40:05.799Z,11725.00
2023-03-01T13:41:05.563Z,12129.00
2023-03-01T13:42:27.384Z,5019.00
2023-03-01T13:43:06.348Z,4986.00
2023-03-01T13:44:05.880Z,4949.00
2023-03-01T13:45:06.601Z,4921.00
2023-03-01T13:46:06.967Z,4868.00
2023-03-01T13:47:05.657Z,4867.00
2023-03-01T13:48:05.403Z,4838.00
2023-03-01T13:49:05.662Z,4847.00
2023-03-01T13:50:05.416Z,5672.00
2023-03-01T13:51:05.688Z,4850.00
2023-03-01T13:52:26.151Z,5251.00
2023-03-01T13:53:05.712Z,5857.00
2023-03-01T13:54:05.475Z,6384.00
2023-03-01T13:55:05.748Z,10780.00
2023-03-01T13:56:05.476Z,6718.00
2023-03-01T13:57:06.703Z,10081.00
2023-03-01T13:58:06.461Z,8090.00
2023-03-01T13:59:05.782Z,7567.00
2023-03-01T14:00:05.512Z,5762.00
2023-03-01T14:01:05.308Z,4910.00
2023-03-01T14:02:27.055Z,4483.00
2023-03-01T14:03:06.662Z,4478.00
2023-03-01T14:04:05.659Z,4994.00
2023-03-01T14:05:05.437Z,9209.00
2023-03-01T14:06:14.005Z,6681.00
2023-03-01T14:07:06.414Z,4999.00
2023-03-01T14:08:06.608Z,7384.00
2023-03-01T14:09:05.414Z,5107.00
2023-03-01T14:10:05.158Z,4366.00
2023-03-01T14:11:05.408Z,4699.00
2023-03-01T14:12:27.124Z,5039.00
2023-03-01T14:13:15.648Z,4519.00
2023-03-01T14:14:06.187Z,4604.00
2023-03-01T14:15:05.442Z,7388.00
2023-03-01T14:16:05.251Z,5635.00
2023-03-01T14:17:06.123Z,4216.00
2023-03-01T14:18:05.200Z,4925.00
2023-03-01T14:19:05.459Z,4119.00
2023-03-01T14:20:06.049Z,4129.00
2023-03-01T14:21:05.474Z,4067.00
2023-03-01T14:22:26.712Z,4083.00
2023-03-01T14:23:05.022Z,4033.00
2023-03-01T14:24:05.293Z,3998.00
2023-03-01T14:25:06.510Z,3977.00
2023-03-01T14:26:05.338Z,4285.00
2023-03-01T14:27:05.072Z,5542.00
2023-03-01T14:28:06.126Z,5376.00
2023-03-01T14:29:05.086Z,4029.00
2023-03-01T14:30:05.348Z,3904.00
2023-03-01T14:31:05.239Z,3854.00
2023-03-01T14:32:26.216Z,3829.00
2023-03-01T14:33:05.166Z,3813.00
2023-03-01T14:34:06.454Z,3782.00
2023-03-01T14:35:05.276Z,3752.00
2023-03-01T14:36:05.979Z,3727.00
2023-03-01T14:37:05.272Z,3705.00
2023-03-01T14:38:05.074Z,3687.00
2023-03-01T14:39:05.279Z,3677.00
2023-03-01T14:40:06.035Z,3652.00
2023-03-01T14:41:06.762Z,3633.00
2023-03-01T14:42:26.536Z,3597.00
2023-03-01T14:43:04.854Z,3588.00
2023-03-01T14:44:05.104Z,3564.00
2023-03-01T14:45:04.860Z,3558.00
2023-03-01T14:46:05.125Z,3537.00
2023-03-01T14:47:04.870Z,3521.00
2023-03-01T14:48:05.107Z,3490.00
2023-03-01T14:49:05.074Z,3475.00
2023-03-01T14:50:05.176Z,3460.00
2023-03-01T14:51:04.887Z,3435.00
2023-03-01T14:52:26.656Z,3425.00
2023-03-01T14:53:04.955Z,3424.00
2023-03-01T14:54:04.681Z,3408.00
2023-03-01T14:55:05.705Z,3388.00
2023-03-01T14:56:05.651Z,3367.00
2023-03-01T14:57:05.910Z,3347.00
2023-03-01T14:58:04.707Z,3344.00
2023-03-01T14:59:04.967Z,3343.00
2023-03-01T15:00:04.768Z,3305.00
2023-03-01T15:01:04.967Z,3273.00
2023-03-01T15:02:26.267Z,3240.00
2023-03-01T15:03:05.068Z,3218.00
2023-03-01T15:04:04.856Z,3206.00
2023-03-01T15:05:06.160Z,3200.00
2023-03-01T15:06:05.824Z,3190.00
2023-03-01T15:07:04.627Z,3186.00
2023-03-01T15:08:04.913Z,3160.00
2023-03-01T15:09:05.474Z,3128.00
2023-03-01T15:10:04.899Z,3096.00
2023-03-01T15:11:05.447Z,3076.00
2023-03-01T15:12:25.687Z,3048.00
2023-03-01T15:13:04.684Z,3045.00
2023-03-01T15:14:04.968Z,3015.00
2023-03-01T15:15:05.053Z,3006.00
2023-03-01T15:16:05.106Z,2981.00
2023-03-01T15:17:06.277Z,2958.00
2023-03-01T15:18:04.961Z,2927.00
2023-03-01T15:19:04.728Z,2899.00
2023-03-01T15:20:04.517Z,2881.00
2023-03-01T15:21:05.649Z,2859.00
2023-03-01T15:22:26.013Z,2827.00
2023-03-01T15:23:05.697Z,2811.00
2023-03-01T15:24:04.510Z,2796.00
2023-03-01T15:25:04.773Z,2775.00
2023-03-01T15:26:04.593Z,2761.00
2023-03-01T15:27:04.796Z,2751.00
2023-03-01T15:28:04.568Z,2732.00
2023-03-01T15:29:04.832Z,2705.00
2023-03-01T15:30:04.607Z,2694.00
2023-03-01T15:31:04.368Z,2663.00
2023-03-01T15:32:24.685Z,2644.00
2023-03-01T15:33:05.815Z,2626.00
2023-03-01T15:34:06.124Z,2598.00
2023-03-01T15:35:05.912Z,2586.00
2023-03-01T15:36:05.229Z,2566.00
2023-03-01T15:37:06.016Z,2555.00